Terminal Aerodrome Forecast
Issued by NWS Topeka, KS

Home | Current Version | Previous Version | Graphics & Text | Print | Product List | Glossary On
Versions: 1 2 3 4 5 6 7 8 9 10 11 12 13 14 15 16 17
414
FTUS43 KTOP 171126
TAFTOP
TAF
KTOP 171126Z 1712/1812 16013KT 6SM -DZ SCT008 BKN014
      TEMPO 1712/1715 4SM -DZ OVC008
     FM171600 18011G20KT P6SM OVC020
     FM171900 19012G25KT P6SM FEW020 SCT250
     FM172300 21006KT P6SM BKN200
     FM180400 32005KT P6SM SCT200=

USA.gov is the U.S. government's official web portal to all federal, state and local government web resources and services.